Time;durP1;ratioP1;P1;durP2;ratioP2;P2;SDS_P1;SDS_P2;PMS_P1;PMS_P2;Temp;Humidity;BMP_temperature;BMP_pressure;BME280_temperature;BME280_humidity;BME280_pressure;Samples;Min_cycle;Max_cycle;Signal;HPM_P1;HPM_P2
2022/03/08 00:01:35;;;;;;;55.87;26.53;;;;;;;4.63;50.65;101002.34;6190284;22;100296;-84
2022/03/08 00:04:01;;;;;;;65.07;30.00;;;;;;;4.59;50.72;101000.59;6215051;22;96644;-84
2022/03/08 00:06:27;;;;;;;58.50;30.23;;;;;;;4.49;51.02;101003.19;6242043;22;97250;-84
2022/03/08 00:08:53;;;;;;;67.00;30.63;;;;;;;4.43;51.10;100999.72;6214443;22;101513;-81
2022/03/08 00:11:19;;;;;;;65.73;28.67;;;;;;;4.45;51.28;101003.16;6215121;22;101639;-84
2022/03/08 00:13:45;;;;;;;64.27;30.87;;;;;;;4.47;50.98;101009.25;6189719;22;97209;-83
2022/03/08 00:16:11;;;;;;;64.27;28.60;;;;;;;4.29;50.84;100971.94;6214793;22;97231;-83
2022/03/08 00:18:38;;;;;;;75.20;34.97;;;;;;;4.33;51.01;101004.00;6189768;22;100578;-84
2022/03/08 00:21:05;;;;;;;86.60;38.37;;;;;;;4.40;51.00;100999.72;6188848;22;101295;-83
2022/03/08 00:23:32;;;;;;;86.87;40.23;;;;;;;4.36;51.19;101003.16;6190208;22;97046;-83
2022/03/08 00:26:00;;;;;;;72.23;31.10;;;;;;;4.35;51.32;101004.03;6178433;22;96756;-85
2022/03/08 00:28:26;;;;;;;66.37;31.10;;;;;;;4.37;51.35;101013.56;6190036;22;101950;-84
2022/03/08 00:30:52;;;;;;;68.83;31.93;;;;;;;4.32;50.93;100997.94;6240875;22;98230;-83
2022/03/08 00:33:17;;;;;;;68.67;31.17;;;;;;;4.32;51.37;101000.53;6214028;22;96699;-84
2022/03/08 00:35:44;;;;;;;62.63;30.33;;;;;;;4.12;51.69;100972.78;6190016;22;96772;-84
2022/03/08 00:38:09;;;;;;;58.80;27.90;;;;;;;4.30;51.16;101006.59;6214252;22;100821;-85
2022/03/08 00:40:35;;;;;;;55.07;27.03;;;;;;;4.25;51.53;100998.81;6214928;22;101293;-84
2022/03/08 00:43:00;;;;;;;55.33;25.40;;;;;;;4.22;51.58;100987.53;6214757;22;96652;-86
2022/03/08 00:45:26;;;;;;;51.97;23.40;;;;;;;4.06;51.81;100964.09;6216004;22;96712;-85
2022/03/08 00:47:52;;;;;;;45.37;19.90;;;;;;;4.34;52.11;100997.97;6188731;22;101206;-84
2022/03/08 00:50:22;;;;;;;44.03;20.20;;;;;;;4.39;52.17;101003.16;6213955;22;101289;-84
2022/03/08 00:52:48;;;;;;;54.10;25.17;;;;;;;4.35;52.54;100996.22;6189925;22;96935;-84
2022/03/08 00:55:15;;;;;;;46.73;22.20;;;;;;;4.22;51.94;100979.75;6215113;22;97494;-84
2022/03/08 00:57:42;;;;;;;44.53;21.10;;;;;;;4.27;52.21;100994.47;6214909;22;99497;-84
2022/03/08 01:00:12;;;;;;;57.50;27.50;;;;;;;4.18;52.07;100973.66;6189617;22;100673;-84
2022/03/08 01:02:37;;;;;;;49.23;23.37;;;;;;;4.30;51.95;101007.50;6213904;22;96654;-84
2022/03/08 01:05:04;;;;;;;52.43;24.93;;;;;;;4.22;51.96;100980.59;6215115;22;96785;-85
2022/03/08 01:07:29;;;;;;;40.00;18.83;;;;;;;4.23;52.21;100995.31;6189419;22;101765;-84
2022/03/08 01:09:55;;;;;;;47.23;24.33;;;;;;;4.32;52.50;100994.47;6240475;22;98428;-81
2022/03/08 01:12:20;;;;;;;43.73;20.50;;;;;;;4.32;51.85;101010.06;6215171;22;96687;-84
2022/03/08 01:14:46;;;;;;;44.10;21.67;;;;;;;4.24;52.12;100991.00;6241502;22;97263;-83
2022/03/08 01:17:12;;;;;;;44.67;20.63;;;;;;;4.30;52.32;100997.09;6240528;22;98019;-84
2022/03/08 01:19:37;;;;;;;49.23;20.60;;;;;;;4.24;52.37;100984.06;6214475;22;99568;-87
2022/03/08 01:22:04;;;;;;;42.03;20.13;;;;;;;4.26;52.36;100997.94;6214383;22;96619;-85
2022/03/08 01:24:30;;;;;;;43.93;20.57;;;;;;;4.20;52.73;100999.66;6189563;22;97496;-84
2022/03/08 01:26:56;;;;;;;51.93;23.00;;;;;;;4.15;52.63;100985.78;6214954;22;100514;-81
2022/03/08 01:29:23;;;;;;;49.67;23.03;;;;;;;4.17;52.70;100994.44;6189253;22;100661;-84
2022/03/08 01:31:49;;;;;;;56.13;25.23;;;;;;;4.04;52.39;100976.22;6215288;22;96978;-83
2022/03/08 01:34:15;;;;;;;50.27;23.87;;;;;;;4.17;52.53;101007.44;6189257;22;96702;-84
2022/03/08 01:36:41;;;;;;;51.87;25.63;;;;;;;4.15;52.34;100997.03;6189464;22;101704;-83
2022/03/08 01:39:07;;;;;;;59.20;29.17;;;;;;;4.14;52.73;101007.44;6213317;22;99747;-83
2022/03/08 01:41:34;;;;;;;53.13;24.70;;;;;;;4.13;52.53;101009.16;6215063;22;96621;-85
2022/03/08 01:44:00;;;;;;;44.23;23.30;;;;;;;4.04;52.38;100999.63;6189369;22;97300;-84
2022/03/08 01:46:25;;;;;;;50.87;24.00;;;;;;;4.00;52.80;101005.63;6188526;22;101211;-85
2022/03/08 01:48:51;;;;;;;55.43;25.93;;;;;;;3.97;53.04;101009.97;6214493;22;100145;-85
2022/03/08 01:51:17;;;;;;;63.83;28.90;;;;;;;3.94;53.06;101007.34;6213882;22;96760;-85
2022/03/08 01:53:43;;;;;;;55.43;27.23;;;;;;;3.80;52.86;100986.50;6214905;22;96769;-85
2022/03/08 01:56:09;;;;;;;47.87;23.83;;;;;;;3.88;52.79;101007.34;6188441;22;101059;-86
2022/03/08 01:58:36;;;;;;;45.83;22.43;;;;;;;3.80;52.89;101007.28;6214626;22;97212;-84
2022/03/08 02:01:03;;;;;;;45.93;22.93;;;;;;;3.84;52.99;101020.31;6240074;22;96608;-84
2022/03/08 02:03:29;;;;;;;46.70;22.47;;;;;;;3.75;52.89;101009.00;6214332;22;96907;-85
2022/03/08 02:05:55;;;;;;;48.57;21.57;;;;;;;3.72;52.78;101006.38;6213408;22;100424;-84
2022/03/08 02:08:21;;;;;;;51.60;22.20;;;;;;;3.81;52.91;101029.78;6188246;22;100749;-86
2022/03/08 02:10:46;;;;;;;43.03;21.30;;;;;;;3.69;53.30;101024.53;6188928;22;96609;-85
2022/03/08 02:13:12;;;;;;;47.70;22.03;;;;;;;3.74;52.99;101028.03;6189063;22;97325;-85
2022/03/08 02:15:37;;;;;;;39.20;20.50;;;;;;;3.78;52.84;101035.88;6240532;22;98079;-84
2022/03/08 02:18:03;;;;;;;47.03;22.00;;;;;;;3.65;52.84;101015.88;6214391;22;100169;-85
2022/03/08 02:20:29;;;;;;;48.20;22.23;;;;;;;3.70;52.91;101032.34;6238137;22;97040;-85
2022/03/08 02:22:55;;;;;;;46.30;22.37;;;;;;;3.64;52.85;101032.31;6189841;22;96620;-85
2022/03/08 02:25:22;;;;;;;48.83;21.77;;;;;;;3.50;52.68;100997.63;6188409;22;101369;-84
2022/03/08 02:27:53;;;;;;;51.73;23.03;;;;;;;3.62;52.81;101024.50;6214918;22;100254;-85
2022/03/08 02:30:20;;;;;;;49.10;23.07;;;;;;;3.60;52.66;101018.44;6214457;22;97084;-85
2022/03/08 02:32:45;;;;;;;51.20;24.33;;;;;;;3.58;53.09;101021.91;6214613;22;97360;-85
2022/03/08 02:35:13;;;;;;;53.67;25.63;;;;;;;3.59;53.00;101013.25;6213473;22;101139;-85
2022/03/08 02:37:42;;;;;;;51.10;23.27;;;;;;;3.54;53.07;101020.13;6213966;22;99784;-84
2022/03/08 02:40:10;;;;;;;49.37;23.90;;;;;;;3.53;52.95;101014.09;6188751;22;97161;-85
2022/03/08 02:42:36;;;;;;;50.73;24.13;;;;;;;3.51;53.20;101020.13;6240616;22;96784;-85
2022/03/08 02:45:02;;;;;;;55.33;24.23;;;;;;;3.37;52.72;100991.47;6213786;22;101062;-84
2022/03/08 02:47:28;;;;;;;53.13;23.37;;;;;;;3.47;52.75;101011.44;6188871;22;100513;-85
2022/03/08 02:49:53;;;;;;;54.97;24.07;;;;;;;3.43;53.01;101011.41;6214682;22;96987;-84
2022/03/08 02:52:19;;;;;;;57.40;26.23;;;;;;;3.25;53.14;100984.47;6240276;22;97169;-86
2022/03/08 02:54:44;;;;;;;50.70;23.57;;;;;;;3.42;53.14;101014.88;6188776;22;100532;-85
2022/03/08 02:57:10;;;;;;;54.43;25.67;;;;;;;3.39;52.70;101007.94;6188003;22;99941;-86
2022/03/08 02:59:36;;;;;;;54.87;25.40;;;;;;;3.38;52.92;101017.44;6214032;22;97405;-85
2022/03/08 03:02:03;;;;;;;53.07;25.70;;;;;;;3.32;53.26;101027.81;6213633;22;96881;-83
2022/03/08 03:04:29;;;;;;;55.97;25.63;;;;;;;3.34;53.40;101028.66;6240045;22;97144;-85
2022/03/08 03:06:54;;;;;;;54.87;25.87;;;;;;;3.29;53.20;101024.31;6239187;22;97422;-85
2022/03/08 03:09:20;;;;;;;57.73;28.03;;;;;;;3.21;53.19;101016.47;6213806;22;96626;-84
2022/03/08 03:11:46;;;;;;;61.53;28.47;;;;;;;3.22;53.30;101030.31;6214350;22;96789;-85
2022/03/08 03:14:11;;;;;;;58.00;27.03;;;;;;;3.23;53.58;101032.03;6188521;22;101938;-85
2022/03/08 03:16:37;;;;;;;55.63;26.10;;;;;;;3.10;53.36;101034.53;6215902;22;101447;-84
2022/03/08 03:19:03;;;;;;;53.50;25.30;;;;;;;3.10;53.99;101028.50;6189321;22;97199;-83
2022/03/08 03:21:29;;;;;;;54.90;25.73;;;;;;;3.10;53.32;101026.75;6240317;22;96884;-84
2022/03/08 03:23:54;;;;;;;54.33;25.07;;;;;;;3.07;53.47;101037.13;6215047;22;101395;-85
2022/03/08 03:26:20;;;;;;;54.63;27.70;;;;;;;3.05;53.89;101038.81;6189488;22;100776;-85
2022/03/08 03:28:45;;;;;;;62.43;27.53;;;;;;;3.09;53.77;101044.94;6215809;22;96595;-84
2022/03/08 03:31:11;;;;;;;52.30;26.43;;;;;;;3.04;53.47;101042.28;6215769;22;96883;-85
2022/03/08 03:33:36;;;;;;;58.60;27.23;;;;;;;3.05;53.50;101045.72;6215841;22;99966;-85
2022/03/08 03:36:02;;;;;;;60.77;25.50;;;;;;;2.85;53.74;101024.81;6211755;22;100714;-83
2022/03/08 03:38:28;;;;;;;55.83;26.13;;;;;;;2.82;53.60;101012.72;6214529;22;96822;-85
2022/03/08 03:40:53;;;;;;;56.00;25.37;;;;;;;2.99;53.86;101053.47;6190587;22;96771;-85
2022/03/08 03:43:19;;;;;;;56.17;25.30;;;;;;;2.98;54.08;101051.75;6240738;22;98076;-86
2022/03/08 03:45:44;;;;;;;53.73;25.83;;;;;;;2.87;53.69;101044.72;6215984;22;97876;-85
2022/03/08 03:48:10;;;;;;;55.77;24.27;;;;;;;2.78;54.08;101029.09;6240826;22;97310;-85
2022/03/08 03:50:36;;;;;;;54.13;25.17;;;;;;;2.72;54.00;101016.94;6215692;22;96964;-84
2022/03/08 03:53:01;;;;;;;55.53;24.53;;;;;;;2.84;54.14;101038.66;6211730;22;101683;-82
2022/03/08 03:55:27;;;;;;;54.93;26.07;;;;;;;2.87;54.49;101047.31;6213507;22;101372;-84
2022/03/08 03:57:53;;;;;;;56.00;23.93;;;;;;;2.85;53.96;101045.56;6215919;22;97033;-85
2022/03/08 04:00:18;;;;;;;53.00;23.77;;;;;;;2.81;54.14;101042.06;6189430;22;96908;-85
2022/03/08 04:02:44;;;;;;;48.90;23.33;;;;;;;2.89;54.08;101049.94;6190120;22;101546;-85
2022/03/08 04:05:11;;;;;;;54.20;23.87;;;;;;;2.76;54.29;101048.06;6214783;22;101292;-85
2022/03/08 04:07:37;;;;;;;47.93;22.33;;;;;;;2.60;54.35;101022.00;6213722;22;97100;-84
2022/03/08 04:10:04;;;;;;;64.50;25.87;;;;;;;2.78;54.41;101057.59;6213699;22;97275;-83
2022/03/08 04:12:29;;;;;;;52.63;23.10;;;;;;;2.83;54.03;101055.06;6214592;22;101323;-85
2022/03/08 04:14:55;;;;;;;52.03;24.43;;;;;;;2.78;54.38;101060.19;6189867;22;100991;-85
2022/03/08 04:17:20;;;;;;;44.03;22.40;;;;;;;2.67;54.04;101034.16;6188878;22;97206;-84
2022/03/08 04:19:46;;;;;;;54.40;23.93;;;;;;;2.65;54.09;101022.06;6216101;22;96697;-85
2022/03/08 04:22:11;;;;;;;47.17;23.03;;;;;;;2.78;54.35;101042.06;6214260;22;99974;-84
2022/03/08 04:24:37;;;;;;;56.83;24.30;;;;;;;2.74;54.33;101052.41;6215098;22;100991;-84
2022/03/08 04:27:04;;;;;;;76.60;38.03;;;;;;;2.83;53.80;101066.31;6189171;22;96700;-81
2022/03/08 04:29:30;;;;;;;75.13;36.93;;;;;;;2.74;54.30;101055.00;6241701;22;96830;-85
2022/03/08 04:31:55;;;;;;;77.37;32.73;;;;;;;2.77;54.13;101065.38;6183235;22;101756;-84
2022/03/08 04:34:21;;;;;;;63.90;28.70;;;;;;;2.65;54.73;101056.63;6214134;22;101467;-83
2022/03/08 04:36:46;;;;;;;60.77;27.43;;;;;;;2.57;54.57;101063.47;6189480;22;96611;-85
2022/03/08 04:39:12;;;;;;;58.37;25.20;;;;;;;2.63;54.75;101063.50;6189568;22;96933;-85
2022/03/08 04:41:38;;;;;;;56.13;26.97;;;;;;;2.69;54.24;101066.16;6215358;22;101138;-85
2022/03/08 04:44:04;;;;;;;49.73;23.50;;;;;;;2.66;54.51;101073.06;6214623;22;99716;-82
2022/03/08 04:46:29;;;;;;;52.63;25.10;;;;;;;2.55;54.81;101074.66;6190021;22;97020;-84
2022/03/08 04:48:55;;;;;;;54.13;24.37;;;;;;;2.53;54.28;101069.47;6215427;22;96574;-85
2022/03/08 04:51:21;;;;;;;59.13;25.67;;;;;;;2.55;54.67;101067.75;6239785;22;97778;-85
2022/03/08 04:53:46;;;;;;;54.70;24.43;;;;;;;2.60;54.52;101080.78;6240996;22;101943;-85
2022/03/08 04:56:14;;;;;;;54.63;26.20;;;;;;;2.51;54.46;101078.94;6190000;22;96904;-84
2022/03/08 04:58:40;;;;;;;54.77;24.00;;;;;;;2.50;54.66;101077.19;6190144;22;96781;-85
2022/03/08 05:01:06;;;;;;;57.50;25.47;;;;;;;2.55;54.74;101079.84;6214172;22;101439;-85
2022/03/08 05:03:31;;;;;;;53.93;23.70;;;;;;;2.46;54.46;101071.09;6215350;22;97409;-84
2022/03/08 05:05:57;;;;;;;54.17;25.17;;;;;;;2.55;54.75;101090.22;6189819;22;97078;-84
2022/03/08 05:08:23;;;;;;;53.83;25.77;;;;;;;2.51;54.85;101089.31;6214619;22;97230;-83
2022/03/08 05:10:48;;;;;;;51.77;23.63;;;;;;;2.41;54.45;101066.72;6213811;22;97146;-84
2022/03/08 05:13:14;;;;;;;50.53;25.13;;;;;;;2.46;55.48;101084.06;6214462;22;97008;-85
2022/03/08 05:15:40;;;;;;;64.10;26.27;;;;;;;2.45;55.46;101089.25;6190006;22;97067;-84
2022/03/08 05:18:05;;;;;;;48.93;24.43;;;;;;;2.47;55.38;101082.34;6189843;22;97140;-83
2022/03/08 05:20:31;;;;;;;50.53;24.03;;;;;;;2.44;55.66;101082.31;6215325;22;101458;-85
2022/03/08 05:23:00;;;;;;;48.77;23.47;;;;;;;2.52;55.38;101096.22;6240990;22;98594;-84
2022/03/08 05:25:28;;;;;;;57.00;26.03;;;;;;;2.40;55.84;101078.81;6187303;22;96582;-84
2022/03/08 05:27:54;;;;;;;48.03;25.67;;;;;;;2.54;55.87;101097.13;6213973;22;96785;-86
2022/03/08 05:30:19;;;;;;;56.67;26.67;;;;;;;2.36;55.94;101066.69;6214077;22;98401;-85
2022/03/08 05:32:45;;;;;;;56.50;26.83;;;;;;;2.58;56.11;101108.38;6215057;22;99943;-84
2022/03/08 05:35:11;;;;;;;57.27;26.77;;;;;;;2.58;56.81;101092.84;6213804;22;96625;-85
2022/03/08 05:37:36;;;;;;;54.63;26.43;;;;;;;2.64;56.34;101105.84;6240225;22;96667;-84
2022/03/08 05:40:07;;;;;;;52.33;25.10;;;;;;;2.68;55.88;101100.75;6215301;22;96828;-85
2022/03/08 05:42:32;;;;;;;51.80;26.60;;;;;;;2.74;56.44;101112.91;6215366;22;98631;-84
2022/03/08 05:44:58;;;;;;;54.27;26.07;;;;;;;2.76;56.21;101121.53;6189688;22;97093;-84
2022/03/08 05:47:23;;;;;;;55.50;26.00;;;;;;;2.79;56.57;101126.75;6214711;22;97417;-84
2022/03/08 05:49:49;;;;;;;51.50;23.83;;;;;;;2.75;56.20;101126.72;6214338;22;100088;-85
2022/03/08 05:52:14;;;;;;;53.50;25.07;;;;;;;2.63;56.53;101107.59;6213706;22;98278;-86
2022/03/08 05:54:40;;;;;;;49.00;24.60;;;;;;;2.75;56.78;101126.72;6240972;22;96953;-85
2022/03/08 05:57:06;;;;;;;53.40;23.90;;;;;;;2.72;57.20;101125.81;6188957;22;97004;-82
2022/03/08 05:59:31;;;;;;;51.67;23.43;;;;;;;2.83;57.23;101140.66;6214534;22;98671;-84
2022/03/08 06:01:57;;;;;;;62.17;25.80;;;;;;;2.82;57.37;101134.59;6214899;22;100880;-85
2022/03/08 06:04:23;;;;;;;48.53;23.33;;;;;;;2.83;57.19;101138.06;6214519;22;96945;-86
2022/03/08 06:06:50;;;;;;;54.60;23.07;;;;;;;2.84;57.13;101148.44;6241715;22;96786;-86
2022/03/08 06:09:16;;;;;;;53.90;24.53;;;;;;;2.89;57.56;101149.34;6188402;22;101367;-84
2022/03/08 06:11:42;;;;;;;56.07;23.93;;;;;;;2.89;57.58;101159.72;6214880;22;101369;-85
2022/03/08 06:14:08;;;;;;;48.87;22.13;;;;;;;2.91;57.64;101164.94;6213356;22;96572;-85
2022/03/08 06:16:33;;;;;;;56.67;23.87;;;;;;;2.97;57.63;101157.22;6215418;22;96692;-85
2022/03/08 06:18:59;;;;;;;53.00;23.43;;;;;;;2.93;57.66;101145.94;6189299;22;100905;-84
2022/03/08 06:21:25;;;;;;;47.77;22.33;;;;;;;2.97;57.90;101152.03;6188573;22;100211;-84
2022/03/08 06:23:50;;;;;;;50.47;21.50;;;;;;;3.08;57.65;101158.19;6216834;22;97031;-84
2022/03/08 06:26:17;;;;;;;47.00;22.23;;;;;;;2.85;58.03;101119.06;6242657;22;97142;-84
2022/03/08 06:28:42;;;;;;;51.10;22.80;;;;;;;3.11;57.85;101160.84;6210016;22;101355;-84
2022/03/08 06:31:08;;;;;;;42.60;20.93;;;;;;;3.10;57.94;101159.06;6204488;22;100273;-84
2022/03/08 06:33:34;;;;;;;45.97;21.67;;;;;;;3.13;57.53;101148.72;6214979;22;96773;-85
2022/03/08 06:35:59;;;;;;;52.77;21.40;;;;;;;3.13;58.07;101150.44;6214987;22;96803;-84
2022/03/08 06:38:25;;;;;;;50.37;20.90;;;;;;;3.21;58.10;101163.50;6240025;22;98400;-85
2022/03/08 06:40:50;;;;;;;52.93;22.93;;;;;;;3.16;58.71;101164.31;6187490;22;101240;-84
2022/03/08 06:43:16;;;;;;;44.37;19.67;;;;;;;3.24;58.07;101163.53;6186357;22;97230;-85
2022/03/08 06:45:42;;;;;;;48.43;23.67;;;;;;;3.27;58.09;101161.84;6214276;22;96802;-86
2022/03/08 06:48:08;;;;;;;43.53;19.50;;;;;;;3.31;58.63;101168.78;6187807;22;101402;-84
2022/03/08 06:50:34;;;;;;;43.47;19.47;;;;;;;3.32;58.70;101164.47;6216314;22;101246;-85
2022/03/08 06:52:59;;;;;;;43.27;19.63;;;;;;;3.35;58.18;101167.09;6216842;22;96839;-85
2022/03/08 06:55:26;;;;;;;41.40;19.20;;;;;;;3.18;58.24;101149.66;6217236;22;96624;-85
2022/03/08 06:57:51;;;;;;;44.00;21.03;;;;;;;3.37;58.46;101179.25;6242572;22;97876;-85
2022/03/08 07:00:19;;;;;;;47.07;21.20;;;;;;;3.45;58.83;101183.63;6190590;22;99336;-85
2022/03/08 07:02:44;;;;;;;52.90;20.80;;;;;;;3.44;58.83;101180.16;6242006;22;97183;-84
2022/03/08 07:05:10;;;;;;;45.97;21.33;;;;;;;3.42;58.67;101166.28;6216589;22;96857;-86
2022/03/08 07:07:37;;;;;;;47.50;20.37;;;;;;;3.45;58.35;101168.03;6215424;22;98053;-84
2022/03/08 07:10:04;;;;;;;42.77;20.93;;;;;;;3.45;59.19;101174.09;6216119;22;98844;-86
2022/03/08 07:12:29;;;;;;;44.90;18.70;;;;;;;3.54;58.91;101163.78;6189224;22;96593;-84
2022/03/08 07:14:55;;;;;;;46.10;19.03;;;;;;;3.54;58.79;101168.13;6190459;22;97306;-86
2022/03/08 07:17:20;;;;;;;43.27;20.17;;;;;;;3.40;58.87;101134.25;6240404;22;99790;-85
2022/03/08 07:19:46;;;;;;;39.80;17.83;;;;;;;3.63;58.69;101170.78;6215804;22;101314;-85
2022/03/08 07:22:11;;;;;;;41.53;18.17;;;;;;;3.64;58.69;101180.34;6215613;22;96577;-84
2022/03/08 07:24:37;;;;;;;41.53;18.70;;;;;;;3.65;58.76;101182.06;6216361;22;96831;-84
2022/03/08 07:27:03;;;;;;;44.10;17.50;;;;;;;3.59;58.72;101163.84;6214881;22;101708;-86
2022/03/08 07:29:28;;;;;;;40.63;18.33;;;;;;;3.63;58.69;101166.44;6188993;22;101698;-84
2022/03/08 07:31:54;;;;;;;38.83;18.07;;;;;;;3.75;58.72;101188.19;6215585;22;97067;-85
2022/03/08 07:34:21;;;;;;;46.90;19.40;;;;;;;3.64;59.14;101175.13;6216314;22;96561;-84
2022/03/08 07:36:46;;;;;;;49.80;18.33;;;;;;;3.65;58.91;101174.28;6241877;22;98015;-85
2022/03/08 07:39:12;;;;;;;48.20;18.57;;;;;;;3.73;58.67;101189.91;6190136;22;101183;-83
2022/03/08 07:41:38;;;;;;;43.23;18.30;;;;;;;3.79;58.51;101193.44;6215771;22;97061;-84
2022/03/08 07:44:04;;;;;;;37.60;17.80;;;;;;;3.81;58.98;101199.50;6216412;22;96647;-85
2022/03/08 07:46:30;;;;;;;41.07;17.73;;;;;;;3.63;58.91;101161.25;6188120;22;101428;-84
2022/03/08 07:48:55;;;;;;;33.70;17.57;;;;;;;3.82;58.84;101182.19;6187309;22;101297;-84
2022/03/08 07:51:21;;;;;;;54.20;17.97;;;;;;;3.86;59.07;101195.19;6211519;22;97078;-83
2022/03/08 07:53:46;;;;;;;48.37;18.13;;;;;;;3.85;59.00;101183.09;6212974;22;96872;-84
2022/03/08 07:56:12;;;;;;;40.93;17.07;;;;;;;3.77;58.99;101170.91;6238313;22;101176;-83
2022/03/08 07:58:40;;;;;;;34.93;16.07;;;;;;;3.96;58.84;101203.09;6209898;22;98013;-83
2022/03/08 08:01:06;;;;;;;33.07;14.43;;;;;;;4.00;58.65;101205.69;6209773;22;97353;-84
2022/03/08 08:03:31;;;;;;;37.10;14.83;;;;;;;3.99;58.63;101197.91;6213429;22;97173;-83
2022/03/08 08:05:57;;;;;;;34.63;13.83;;;;;;;4.00;58.95;101194.44;6213478;22;101422;-83
2022/03/08 08:08:22;;;;;;;36.60;14.17;;;;;;;3.93;58.61;101182.28;6211510;22;97650;-83
2022/03/08 08:10:48;;;;;;;36.53;13.43;;;;;;;4.12;58.50;101191.06;6211417;22;96638;-83
2022/03/08 08:13:13;;;;;;;32.40;13.37;;;;;;;4.12;58.51;101191.06;6185511;22;96825;-83
2022/03/08 08:15:40;;;;;;;37.87;13.77;;;;;;;4.20;58.44;101198.03;6184248;22;101915;-84
2022/03/08 08:18:05;;;;;;;30.57;12.77;;;;;;;4.30;58.55;101191.16;6211325;22;101586;-83
2022/03/08 08:20:32;;;;;;;23.47;10.43;;;;;;;4.26;58.47;101159.06;6237123;22;96627;-83
2022/03/08 08:22:57;;;;;;;35.13;11.93;;;;;;;4.54;57.97;101193.88;6212038;22;96843;-81
2022/03/08 08:25:23;;;;;;;40.20;12.40;;;;;;;4.51;58.17;101188.69;6211937;22;101421;-81
2022/03/08 08:27:49;;;;;;;34.53;11.67;;;;;;;4.62;57.49;101191.31;6186398;22;100031;-82
2022/03/08 08:30:14;;;;;;;26.60;11.00;;;;;;;4.63;57.85;101187.84;6211925;22;97437;-81
2022/03/08 08:32:40;;;;;;;32.30;11.43;;;;;;;4.70;57.37;101189.59;6213311;22;97317;-82
2022/03/08 08:35:07;;;;;;;24.10;10.00;;;;;;;4.74;56.96;101193.97;6238339;22;98005;-80
2022/03/08 08:37:33;;;;;;;23.60;10.77;;;;;;;4.74;57.01;101193.97;6212169;22;97453;-81
2022/03/08 08:39:58;;;;;;;33.63;10.43;;;;;;;4.78;56.58;101197.44;6186627;22;96705;-81
2022/03/08 08:42:24;;;;;;;25.43;9.33;;;;;;;4.76;56.43;101188.75;6213283;22;97206;-81
2022/03/08 08:44:49;;;;;;;25.20;8.97;;;;;;;4.84;55.84;101186.19;6187535;22;101837;-80
2022/03/08 08:47:15;;;;;;;20.03;7.53;;;;;;;4.89;55.69;101190.56;6237714;22;98021;-81
2022/03/08 08:49:41;;;;;;;22.73;7.57;;;;;;;4.94;55.53;101194.00;6186630;22;96979;-85
2022/03/08 08:52:06;;;;;;;11.00;5.57;;;;;;;5.04;54.71;101194.94;6216102;22;97268;-81
2022/03/08 08:54:32;;;;;;;11.30;5.77;;;;;;;5.13;54.02;101191.47;6189811;22;101294;-84
2022/03/08 08:56:57;;;;;;;12.30;6.00;;;;;;;5.33;54.26;101189.78;6239818;22;101289;-87
2022/03/08 08:59:23;;;;;;;17.60;6.00;;;;;;;5.56;53.21;101194.16;6215558;22;96613;-84
2022/03/08 09:01:49;;;;;;;19.90;5.90;;;;;;;5.83;52.41;101188.06;6216299;22;96643;-83
2022/03/08 09:04:14;;;;;;;19.03;7.10;;;;;;;5.87;52.35;101167.19;6240635;22;97532;-82
2022/03/08 09:06:41;;;;;;;13.43;6.03;;;;;;;6.08;51.48;101181.13;6215476;22;101013;-87
2022/03/08 09:09:07;;;;;;;17.87;6.43;;;;;;;6.32;51.39;101172.34;6217374;22;96651;-87
2022/03/08 09:11:33;;;;;;;17.80;7.83;;;;;;;6.57;50.37;101179.22;6189448;22;96974;-87
2022/03/08 09:13:59;;;;;;;12.83;6.50;;;;;;;6.57;50.35;101154.84;6190364;22;101501;-85
2022/03/08 09:16:26;;;;;;;14.13;6.20;;;;;;;6.70;49.88;101156.56;6189759;22;101656;-89
2022/03/08 09:18:52;;;;;;;16.93;7.33;;;;;;;6.91;49.51;101186.03;6215964;22;96652;-85
2022/03/08 09:21:17;;;;;;;18.60;6.50;;;;;;;6.92;49.78;101193.88;6217052;22;96795;-88
2022/03/08 09:23:43;;;;;;;24.20;7.50;;;;;;;6.88;49.16;101186.91;6217192;22;98070;-88
2022/03/08 09:26:09;;;;;;;13.13;7.47;;;;;;;6.92;49.14;101195.56;6191129;22;101446;-83
2022/03/08 09:28:34;;;;;;;11.97;7.53;;;;;;;7.15;49.02;101183.25;6189910;22;96629;-87
2022/03/08 09:31:00;;;;;;;12.40;7.17;;;;;;;7.68;49.29;101184.63;6188668;22;96935;-90
2022/03/08 09:33:26;;;;;;;25.50;8.23;;;;;;;8.09;48.66;101159.00;6242459;22;98459;-90
2022/03/08 09:35:52;;;;;;;19.65;8.10;;;;;;;8.65;47.25;101167.97;6217237;22;101641;-90
2022/03/08 09:38:18;;;;;;;15.38;7.30;;;;;;;8.93;45.65;101178.06;6190424;22;96879;-89
2022/03/08 09:40:43;;;;;;;12.57;7.68;;;;;;;8.88;45.22;101180.75;6216953;22;96764;-89
2022/03/08 09:43:09;;;;;;;14.77;7.30;;;;;;;8.68;44.45;101186.25;6190507;22;101517;-80
2022/03/08 09:45:35;;;;;;;12.82;6.65;;;;;;;8.73;44.44;101181.81;6241065;22;97986;-85
2022/03/08 09:48:01;;;;;;;14.10;7.95;;;;;;;8.88;44.45;101178.13;6213392;22;96658;-83
2022/03/08 09:50:29;;;;;;;14.27;8.38;;;;;;;9.03;44.01;101154.34;6189150;22;96918;-82
2022/03/08 09:52:56;;;;;;;15.20;7.88;;;;;;;9.55;43.53;101175.41;6205682;22;98446;-83
2022/03/08 09:55:24;;;;;;;17.70;8.25;;;;;;;9.89;43.32;101170.44;6207541;22;101482;-83
2022/03/08 09:57:51;;;;;;;12.30;8.27;;;;;;;10.25;42.73;101160.19;6210354;22;97139;-84
2022/03/08 10:00:17;;;;;;;15.38;8.32;;;;;;;10.63;41.82;101164.69;6209810;22;97184;-81
2022/03/08 10:02:54;;;;;;;15.52;7.75;;;;;;;10.91;41.55;101164.06;6186491;22;100430;-84
2022/03/08 10:05:25;;;;;;;12.77;7.97;;;;;;;11.16;40.48;101149.50;6186079;22;101513;-83
2022/03/08 10:08:11;;;;;;;19.33;8.95;;;;;;;11.36;40.15;101164.78;6187019;22;97143;-85
2022/03/08 10:10:52;;;;;;;16.08;8.18;;;;;;;10.93;39.65;101136.88;6187037;22;97224;-82
2022/03/08 10:13:19;;;;;;;12.10;7.43;;;;;;;10.66;40.75;101159.38;6212518;22;101649;-82
2022/03/08 10:15:46;;;;;;;16.83;7.95;;;;;;;10.33;40.56;101153.06;6187722;22;101590;-82
2022/03/08 10:18:12;;;;;;;12.00;6.88;;;;;;;10.17;40.35;101169.03;6214297;22;97091;-83
2022/03/08 10:20:38;;;;;;;12.68;7.65;;;;;;;10.04;40.52;101140.47;6211642;22;97399;-83
2022/03/08 10:23:13;;;;;;;13.70;6.80;;;;;;;10.32;40.37;101172.31;6214045;22;98477;-82
2022/03/08 10:25:41;;;;;;;12.63;6.70;;;;;;;10.58;39.87;101169.16;6187853;22;101204;-83
2022/03/08 10:28:08;;;;;;;14.23;6.47;;;;;;;10.88;39.75;101157.16;6239702;22;97301;-86
2022/03/08 10:30:43;;;;;;;15.00;7.85;;;;;;;10.93;39.95;101157.03;6190478;22;96800;-84
2022/03/08 10:33:09;;;;;;;15.40;8.15;;;;;;;10.86;40.20;101164.19;6214004;22;101537;-83
2022/03/08 10:35:39;;;;;;;20.30;7.93;;;;;;;10.62;39.90;101157.72;6216053;22;101465;-83
2022/03/08 10:38:12;;;;;;;23.20;8.10;;;;;;;10.34;40.45;101155.63;6216599;22;97217;-86
2022/03/08 10:40:38;;;;;;;13.20;7.30;;;;;;;9.91;40.25;101135.41;6217030;22;97570;-84
2022/03/08 10:43:03;;;;;;;10.23;6.85;;;;;;;9.87;40.66;101165.22;6190208;22;101360;-89
2022/03/08 10:45:31;;;;;;;18.98;8.80;;;;;;;9.84;40.47;101162.66;6242906;22;97941;-82
2022/03/08 10:47:56;;;;;;;21.20;8.43;;;;;;;9.90;41.50;101151.19;6187109;22;96713;-79
2022/03/08 10:50:30;;;;;;;14.82;8.48;;;;;;;10.05;41.89;101144.81;6214909;22;97178;-83
2022/03/08 10:52:58;;;;;;;15.00;8.50;;;;;;;10.24;41.55;101145.31;6217400;22;97582;-82
2022/03/08 10:55:24;;;;;;;15.23;8.70;;;;;;;10.29;41.12;101133.84;6189772;22;101552;-82
2022/03/08 10:57:55;;;;;;;15.40;8.40;;;;;;;10.23;41.06;101115.59;6216122;22;96609;-84
2022/03/08 11:00:32;;;;;;;13.00;7.97;;;;;;;10.23;40.66;101127.84;6191815;22;96772;-83
2022/03/08 11:03:06;;;;;;;16.17;8.82;;;;;;;9.89;40.58;101089.13;6216729;22;97944;-83
2022/03/08 11:05:37;;;;;;;14.77;8.18;;;;;;;9.91;40.60;101130.19;6215283;22;101691;-84
2022/03/08 11:08:05;;;;;;;13.63;7.53;;;;;;;9.69;40.43;101128.84;6190741;22;96770;-83
2022/03/08 11:10:31;;;;;;;15.18;8.98;;;;;;;9.50;41.08;101136.16;6215485;22;96744;-83
2022/03/08 11:12:58;;;;;;;20.00;10.63;;;;;;;9.43;41.09;101126.69;6216610;22;97676;-83